sensor_id;sensor_type;location;lat;lon;timestamp;pressure;altitude;pressure_sealevel;temperature;humidity
44457;BME280;30159;49.316;8.558;2022-10-26T00:00:29;100338.97;;;14.81;100.00
44457;BME280;30159;49.316;8.558;2022-10-26T00:02:56;100348.88;;;14.85;100.00
44457;BME280;30159;49.316;8.558;2022-10-26T00:05:22;100364.84;;;14.87;100.00
44457;BME280;30159;49.316;8.558;2022-10-26T00:07:49;100373.00;;;14.87;100.00
44457;BME280;30159;49.316;8.558;2022-10-26T00:10:17;100368.56;;;14.91;100.00
44457;BME280;30159;49.316;8.558;2022-10-26T00:12:47;100382.63;;;14.93;100.00
44457;BME280;30159;49.316;8.558;2022-10-26T00:15:14;100374.06;;;15.00;100.00
44457;BME280;30159;49.316;8.558;2022-10-26T00:17:41;100376.59;;;14.96;100.00
44457;BME280;30159;49.316;8.558;2022-10-26T00:20:08;100378.06;;;15.02;100.00
44457;BME280;30159;49.316;8.558;2022-10-26T00:22:35;100372.22;;;15.09;100.00
44457;BME280;30159;49.316;8.558;2022-10-26T00:25:01;100369.06;;;14.93;100.00
44457;BME280;30159;49.316;8.558;2022-10-26T00:27:29;100373.19;;;14.90;100.00
44457;BME280;30159;49.316;8.558;2022-10-26T00:29:58;100358.13;;;14.84;100.00
44457;BME280;30159;49.316;8.558;2022-10-26T00:32:25;100360.31;;;14.73;100.00
44457;BME280;30159;49.316;8.558;2022-10-26T00:34:51;100365.53;;;14.70;100.00
44457;BME280;30159;49.316;8.558;2022-10-26T00:37:18;100365.03;;;14.68;100.00
44457;BME280;30159;49.316;8.558;2022-10-26T00:39:45;100355.03;;;14.77;100.00
44457;BME280;30159;49.316;8.558;2022-10-26T00:42:13;100356.34;;;14.80;100.00
44457;BME280;30159;49.316;8.558;2022-10-26T00:44:56;100356.84;;;14.82;100.00
44457;BME280;30159;49.316;8.558;2022-10-26T00:47:32;100362.75;;;14.84;100.00
44457;BME280;30159;49.316;8.558;2022-10-26T00:50:02;100345.44;;;14.71;100.00
44457;BME280;30159;49.316;8.558;2022-10-26T00:52:31;100355.91;;;14.86;100.00
44457;BME280;30159;49.316;8.558;2022-10-26T00:54:58;100358.00;;;14.89;100.00
44457;BME280;30159;49.316;8.558;2022-10-26T00:57:25;100358.19;;;14.93;100.00
44457;BME280;30159;49.316;8.558;2022-10-26T00:59:54;100345.53;;;14.88;100.00
44457;BME280;30159;49.316;8.558;2022-10-26T01:02:22;100353.81;;;14.83;100.00
44457;BME280;30159;49.316;8.558;2022-10-26T01:04:48;100353.19;;;14.86;100.00
44457;BME280;30159;49.316;8.558;2022-10-26T01:07:15;100347.53;;;14.96;100.00
44457;BME280;30159;49.316;8.558;2022-10-26T01:09:42;100357.41;;;14.92;100.00
44457;BME280;30159;49.316;8.558;2022-10-26T01:12:09;100360.97;;;15.02;100.00
44457;BME280;30159;49.316;8.558;2022-10-26T01:14:36;100355.72;;;15.05;100.00
44457;BME280;30159;49.316;8.558;2022-10-26T01:17:11;100221.22;;;14.09;100.00
44457;BME280;30159;49.316;8.558;2022-10-26T01:20:24;100332.09;;;14.83;100.00
44457;BME280;30159;49.316;8.558;2022-10-26T01:23:03;100365.63;;;15.01;100.00
44457;BME280;30159;49.316;8.558;2022-10-26T01:25:52;100360.34;;;15.05;100.00
44457;BME280;30159;49.316;8.558;2022-10-26T01:28:35;100353.75;;;14.97;100.00
44457;BME280;30159;49.316;8.558;2022-10-26T01:31:12;100343.81;;;14.92;100.00
44457;BME280;30159;49.316;8.558;2022-10-26T01:33:44;100337.69;;;14.87;100.00
44457;BME280;30159;49.316;8.558;2022-10-26T01:36:25;100328.88;;;14.81;100.00
44457;BME280;30159;49.316;8.558;2022-10-26T01:38:58;100319.94;;;14.81;100.00
44457;BME280;30159;49.316;8.558;2022-10-26T01:41:29;100323.94;;;14.83;100.00
44457;BME280;30159;49.316;8.558;2022-10-26T01:44:00;100264.88;;;14.44;100.00
44457;BME280;30159;49.316;8.558;2022-10-26T01:46:33;100318.53;;;14.83;100.00
44457;BME280;30159;49.316;8.558;2022-10-26T01:49:04;100297.88;;;14.73;100.00
44457;BME280;30159;49.316;8.558;2022-10-26T01:51:33;100308.28;;;14.80;100.00
44457;BME280;30159;49.316;8.558;2022-10-26T01:54:00;100303.78;;;14.75;100.00
44457;BME280;30159;49.316;8.558;2022-10-26T01:56:29;100298.53;;;14.79;100.00
44457;BME280;30159;49.316;8.558;2022-10-26T01:59:21;100300.97;;;14.89;100.00
44457;BME280;30159;49.316;8.558;2022-10-26T02:02:35;100301.47;;;14.91;100.00
44457;BME280;30159;49.316;8.558;2022-10-26T02:05:30;100326.81;;;15.09;100.00
44457;BME280;30159;49.316;8.558;2022-10-26T02:08:06;100335.16;;;15.13;100.00
44457;BME280;30159;49.316;8.558;2022-10-26T02:10:44;100331.75;;;15.07;100.00
44457;BME280;30159;49.316;8.558;2022-10-26T02:13:16;100338.63;;;15.05;100.00
44457;BME280;30159;49.316;8.558;2022-10-26T02:15:49;100336.13;;;15.17;100.00
44457;BME280;30159;49.316;8.558;2022-10-26T02:18:24;100334.97;;;15.09;100.00
44457;BME280;30159;49.316;8.558;2022-10-26T02:20:59;100332.44;;;15.13;100.00
44457;BME280;30159;49.316;8.558;2022-10-26T02:23:30;100334.78;;;15.06;100.00
44457;BME280;30159;49.316;8.558;2022-10-26T02:25:59;100341.53;;;15.08;100.00
44457;BME280;30159;49.316;8.558;2022-10-26T02:28:30;100331.31;;;15.14;100.00
44457;BME280;30159;49.316;8.558;2022-10-26T02:31:00;100332.91;;;15.15;100.00
44457;BME280;30159;49.316;8.558;2022-10-26T02:33:31;100335.97;;;15.13;100.00
44457;BME280;30159;49.316;8.558;2022-10-26T02:36:01;100333.53;;;15.12;100.00
44457;BME280;30159;49.316;8.558;2022-10-26T02:38:31;100324.75;;;15.06;100.00
44457;BME280;30159;49.316;8.558;2022-10-26T02:41:00;100346.91;;;15.00;100.00
44457;BME280;30159;49.316;8.558;2022-10-26T02:43:29;100343.06;;;15.01;100.00
44457;BME280;30159;49.316;8.558;2022-10-26T02:46:01;100344.84;;;15.05;100.00
44457;BME280;30159;49.316;8.558;2022-10-26T02:48:31;100340.13;;;14.88;100.00
44457;BME280;30159;49.316;8.558;2022-10-26T02:50:59;100348.63;;;14.95;100.00
44457;BME280;30159;49.316;8.558;2022-10-26T02:53:30;100339.63;;;14.86;100.00
44457;BME280;30159;49.316;8.558;2022-10-26T02:56:03;100344.88;;;14.83;100.00
44457;BME280;30159;49.316;8.558;2022-10-26T02:58:36;100333.94;;;14.74;100.00
44457;BME280;30159;49.316;8.558;2022-10-26T03:01:04;100328.25;;;14.84;100.00
44457;BME280;30159;49.316;8.558;2022-10-26T03:03:35;100344.06;;;14.82;100.00
44457;BME280;30159;49.316;8.558;2022-10-26T03:06:02;100353.94;;;14.78;100.00
44457;BME280;30159;49.316;8.558;2022-10-26T03:08:32;100347.75;;;14.64;100.00
44457;BME280;30159;49.316;8.558;2022-10-26T03:10:58;100359.94;;;14.66;100.00
44457;BME280;30159;49.316;8.558;2022-10-26T03:13:25;100374.44;;;14.62;100.00
44457;BME280;30159;49.316;8.558;2022-10-26T03:15:54;100369.81;;;14.48;100.00
44457;BME280;30159;49.316;8.558;2022-10-26T03:18:20;100392.94;;;14.60;100.00
44457;BME280;30159;49.316;8.558;2022-10-26T03:20:49;100329.06;;;14.26;100.00
44457;BME280;30159;49.316;8.558;2022-10-26T03:23:15;100369.28;;;14.60;100.00
44457;BME280;30159;49.316;8.558;2022-10-26T03:25:42;100352.50;;;14.58;100.00
44457;BME280;30159;49.316;8.558;2022-10-26T03:28:08;100362.16;;;14.64;100.00
44457;BME280;30159;49.316;8.558;2022-10-26T03:30:35;100355.09;;;14.63;100.00
44457;BME280;30159;49.316;8.558;2022-10-26T03:33:01;100302.94;;;14.30;100.00
44457;BME280;30159;49.316;8.558;2022-10-26T03:35:28;100343.56;;;14.58;100.00
44457;BME280;30159;49.316;8.558;2022-10-26T03:37:56;100337.88;;;14.45;100.00
44457;BME280;30159;49.316;8.558;2022-10-26T03:40:22;100325.50;;;14.39;100.00
44457;BME280;30159;49.316;8.558;2022-10-26T03:42:49;100335.06;;;14.37;100.00
44457;BME280;30159;49.316;8.558;2022-10-26T03:45:16;100349.50;;;14.46;100.00
44457;BME280;30159;49.316;8.558;2022-10-26T03:47:43;100304.72;;;14.34;100.00
44457;BME280;30159;49.316;8.558;2022-10-26T03:50:10;100338.53;;;14.51;100.00
44457;BME280;30159;49.316;8.558;2022-10-26T03:52:38;100353.50;;;14.62;100.00
44457;BME280;30159;49.316;8.558;2022-10-26T03:55:07;100345.88;;;14.64;100.00
44457;BME280;30159;49.316;8.558;2022-10-26T03:57:35;100347.66;;;14.69;100.00
44457;BME280;30159;49.316;8.558;2022-10-26T04:00:06;100350.03;;;14.70;100.00
44457;BME280;30159;49.316;8.558;2022-10-26T04:02:32;100351.34;;;14.73;100.00
44457;BME280;30159;49.316;8.558;2022-10-26T04:04:59;100345.44;;;14.71;100.00
44457;BME280;30159;49.316;8.558;2022-10-26T04:07:25;100342.91;;;14.74;100.00
44457;BME280;30159;49.316;8.558;2022-10-26T04:09:52;100355.69;;;14.74;100.00
44457;BME280;30159;49.316;8.558;2022-10-26T04:12:20;100343.81;;;14.70;100.00
44457;BME280;30159;49.316;8.558;2022-10-26T04:14:46;100342.31;;;14.64;100.00
44457;BME280;30159;49.316;8.558;2022-10-26T04:17:13;100335.03;;;14.50;100.00
44457;BME280;30159;49.316;8.558;2022-10-26T04:19:39;100352.72;;;14.62;100.00
44457;BME280;30159;49.316;8.558;2022-10-26T04:22:06;100356.09;;;14.67;100.00
44457;BME280;30159;49.316;8.558;2022-10-26T04:24:32;100353.19;;;14.64;100.00
44457;BME280;30159;49.316;8.558;2022-10-26T04:26:59;100347.75;;;14.64;100.00
44457;BME280;30159;49.316;8.558;2022-10-26T04:29:27;100345.53;;;14.66;100.00
44457;BME280;30159;49.316;8.558;2022-10-26T04:31:53;100349.16;;;14.61;100.00
44457;BME280;30159;49.316;8.558;2022-10-26T04:34:20;100344.25;;;14.63;100.00
44457;BME280;30159;49.316;8.558;2022-10-26T04:36:46;100334.50;;;14.62;100.00
44457;BME280;30159;49.316;8.558;2022-10-26T04:39:13;100335.13;;;14.59;100.00
44457;BME280;30159;49.316;8.558;2022-10-26T04:41:39;100336.63;;;14.51;100.00
44457;BME280;30159;49.316;8.558;2022-10-26T04:44:06;100354.16;;;14.45;100.00
44457;BME280;30159;49.316;8.558;2022-10-26T04:46:34;100345.50;;;14.43;100.00
44457;BME280;30159;49.316;8.558;2022-10-26T04:49:00;100354.63;;;14.47;100.00
44457;BME280;30159;49.316;8.558;2022-10-26T04:51:27;100331.94;;;14.43;100.00
44457;BME280;30159;49.316;8.558;2022-10-26T04:53:54;100343.47;;;14.49;100.00
44457;BME280;30159;49.316;8.558;2022-10-26T04:56:21;100345.19;;;14.45;100.00
44457;BME280;30159;49.316;8.558;2022-10-26T04:58:48;100327.81;;;14.46;100.00
44457;BME280;30159;49.316;8.558;2022-10-26T05:01:14;100337.75;;;14.50;100.00
44457;BME280;30159;49.316;8.558;2022-10-26T05:03:42;100324.88;;;14.56;100.00
44457;BME280;30159;49.316;8.558;2022-10-26T05:06:09;100324.16;;;14.50;100.00
44457;BME280;30159;49.316;8.558;2022-10-26T05:08:35;100323.84;;;14.52;100.00
44457;BME280;30159;49.316;8.558;2022-10-26T05:11:02;100327.91;;;14.54;100.00
44457;BME280;30159;49.316;8.558;2022-10-26T05:13:28;100332.41;;;14.59;100.00
44457;BME280;30159;49.316;8.558;2022-10-26T05:15:55;100345.50;;;14.57;100.00
44457;BME280;30159;49.316;8.558;2022-10-26T05:18:21;100344.66;;;14.57;100.00
44457;BME280;30159;49.316;8.558;2022-10-26T05:20:51;100355.09;;;14.63;100.00
44457;BME280;30159;49.316;8.558;2022-10-26T05:23:18;100358.31;;;14.65;100.00
44457;BME280;30159;49.316;8.558;2022-10-26T05:25:45;100356.53;;;14.61;100.00
44457;BME280;30159;49.316;8.558;2022-10-26T05:28:13;100380.81;;;14.66;100.00
44457;BME280;30159;49.316;8.558;2022-10-26T05:30:41;100385.34;;;14.70;100.00
44457;BME280;30159;49.316;8.558;2022-10-26T05:33:09;100373.44;;;14.58;100.00
44457;BME280;30159;49.316;8.558;2022-10-26T05:35:36;100387.38;;;14.65;100.00
44457;BME280;30159;49.316;8.558;2022-10-26T05:38:07;100387.25;;;14.70;100.00
44457;BME280;30159;49.316;8.558;2022-10-26T05:40:34;100381.88;;;14.42;100.00
44457;BME280;30159;49.316;8.558;2022-10-26T05:43:03;100384.00;;;14.45;100.00
44457;BME280;30159;49.316;8.558;2022-10-26T05:45:29;100388.91;;;14.43;100.00
44457;BME280;30159;49.316;8.558;2022-10-26T05:48:02;100377.44;;;14.46;100.00
44457;BME280;30159;49.316;8.558;2022-10-26T05:50:28;100382.47;;;14.53;100.00
44457;BME280;30159;49.316;8.558;2022-10-26T05:52:55;100389.09;;;14.61;100.00
44457;BME280;30159;49.316;8.558;2022-10-26T05:55:24;100401.47;;;14.53;100.00
44457;BME280;30159;49.316;8.558;2022-10-26T05:57:51;100410.81;;;14.61;100.00
44457;BME280;30159;49.316;8.558;2022-10-26T06:00:19;100402.53;;;14.66;100.00
44457;BME280;30159;49.316;8.558;2022-10-26T06:02:58;100390.91;;;14.51;100.00
44457;BME280;30159;49.316;8.558;2022-10-26T06:05:33;100392.13;;;14.59;100.00
44457;BME280;30159;49.316;8.558;2022-10-26T06:08:01;100403.97;;;14.63;100.00
44457;BME280;30159;49.316;8.558;2022-10-26T06:10:30;100418.28;;;14.55;100.00
44457;BME280;30159;49.316;8.558;2022-10-26T06:12:57;100414.75;;;14.54;100.00
44457;BME280;30159;49.316;8.558;2022-10-26T06:15:24;100428.91;;;14.51;100.00
44457;BME280;30159;49.316;8.558;2022-10-26T06:18:00;100429.69;;;14.52;100.00
44457;BME280;30159;49.316;8.558;2022-10-26T06:20:41;100440.88;;;14.50;100.00
44457;BME280;30159;49.316;8.558;2022-10-26T06:23:32;100446.09;;;14.47;100.00
44457;BME280;30159;49.316;8.558;2022-10-26T06:26:10;100454.06;;;14.57;100.00
44457;BME280;30159;49.316;8.558;2022-10-26T06:28:47;100451.72;;;14.50;100.00
44457;BME280;30159;49.316;8.558;2022-10-26T06:31:24;100449.44;;;14.44;100.00
44457;BME280;30159;49.316;8.558;2022-10-26T06:33:52;100451.22;;;14.48;100.00
44457;BME280;30159;49.316;8.558;2022-10-26T06:36:26;100451.66;;;14.56;100.00
44457;BME280;30159;49.316;8.558;2022-10-26T06:38:55;100452.81;;;14.63;100.00
44457;BME280;30159;49.316;8.558;2022-10-26T06:41:37;100450.22;;;14.58;100.00
44457;BME280;30159;49.316;8.558;2022-10-26T06:44:14;100446.97;;;14.70;100.00
44457;BME280;30159;49.316;8.558;2022-10-26T06:46:47;100451.63;;;14.69;100.00
44457;BME280;30159;49.316;8.558;2022-10-26T06:49:26;100458.34;;;14.72;100.00
44457;BME280;30159;49.316;8.558;2022-10-26T06:51:57;100458.34;;;14.72;100.00
44457;BME280;30159;49.316;8.558;2022-10-26T06:54:36;100450.09;;;14.77;100.00
44457;BME280;30159;49.316;8.558;2022-10-26T06:57:09;100452.22;;;14.80;100.00
44457;BME280;30159;49.316;8.558;2022-10-26T06:59:44;100460.34;;;14.80;100.00
44457;BME280;30159;49.316;8.558;2022-10-26T07:02:14;100463.53;;;14.82;100.00
44457;BME280;30159;49.316;8.558;2022-10-26T07:04:41;100470.38;;;14.80;100.00
44457;BME280;30159;49.316;8.558;2022-10-26T07:07:13;100481.25;;;14.80;100.00
44457;BME280;30159;49.316;8.558;2022-10-26T07:09:43;100488.97;;;14.86;100.00
44457;BME280;30159;49.316;8.558;2022-10-26T07:12:25;100491.91;;;14.90;100.00
44457;BME280;30159;49.316;8.558;2022-10-26T07:14:53;100489.97;;;14.90;100.00
44457;BME280;30159;49.316;8.558;2022-10-26T07:17:20;100496.59;;;14.98;100.00
44457;BME280;30159;49.316;8.558;2022-10-26T07:19:49;100494.09;;;15.02;100.00
44457;BME280;30159;49.316;8.558;2022-10-26T07:22:16;100496.28;;;15.00;100.00
44457;BME280;30159;49.316;8.558;2022-10-26T07:24:42;100511.69;;;15.04;100.00
44457;BME280;30159;49.316;8.558;2022-10-26T07:27:15;100499.19;;;15.03;100.00
44457;BME280;30159;49.316;8.558;2022-10-26T07:29:49;100520.91;;;15.39;100.00
44457;BME280;30159;49.316;8.558;2022-10-26T07:32:23;100523.19;;;15.46;100.00
44457;BME280;30159;49.316;8.558;2022-10-26T07:34:50;100521.78;;;15.49;100.00
44457;BME280;30159;49.316;8.558;2022-10-26T07:37:19;100522.69;;;15.44;100.00
44457;BME280;30159;49.316;8.558;2022-10-26T07:39:52;100516.34;;;15.49;100.00
44457;BME280;30159;49.316;8.558;2022-10-26T07:42:19;100453.84;;;15.04;100.00
44457;BME280;30159;49.316;8.558;2022-10-26T07:44:45;100516.63;;;15.47;100.00
44457;BME280;30159;49.316;8.558;2022-10-26T07:47:13;100527.84;;;15.46;100.00
44457;BME280;30159;49.316;8.558;2022-10-26T07:49:40;100525.72;;;15.43;100.00
44457;BME280;30159;49.316;8.558;2022-10-26T07:52:07;100541.31;;;15.51;100.00
44457;BME280;30159;49.316;8.558;2022-10-26T07:54:34;100528.38;;;15.56;100.00
44457;BME280;30159;49.316;8.558;2022-10-26T07:57:01;100527.22;;;15.49;100.00
44457;BME280;30159;49.316;8.558;2022-10-26T07:59:27;100531.88;;;15.57;100.00
44457;BME280;30159;49.316;8.558;2022-10-26T08:01:54;100521.84;;;15.57;100.00
44457;BME280;30159;49.316;8.558;2022-10-26T08:04:22;100523.50;;;15.67;100.00
44457;BME280;30159;49.316;8.558;2022-10-26T08:06:48;100533.47;;;15.72;100.00
44457;BME280;30159;49.316;8.558;2022-10-26T08:09:15;100536.56;;;15.79;100.00
44457;BME280;30159;49.316;8.558;2022-10-26T08:11:41;100534.13;;;15.77;100.00
44457;BME280;30159;49.316;8.558;2022-10-26T08:14:09;100533.97;;;15.74;100.00
44457;BME280;30159;49.316;8.558;2022-10-26T08:16:36;100542.00;;;15.79;100.00
44457;BME280;30159;49.316;8.558;2022-10-26T08:19:04;100535.84;;;15.96;100.00
44457;BME280;30159;49.316;8.558;2022-10-26T08:21:32;100552.09;;;16.10;100.00
44457;BME280;30159;49.316;8.558;2022-10-26T08:23:58;100554.66;;;16.15;100.00
44457;BME280;30159;49.316;8.558;2022-10-26T08:26:25;100548.97;;;16.25;100.00
44457;BME280;30159;49.316;8.558;2022-10-26T08:28:51;100553.59;;;16.25;100.00
44457;BME280;30159;49.316;8.558;2022-10-26T08:31:18;100567.25;;;16.33;100.00
44457;BME280;30159;49.316;8.558;2022-10-26T08:33:44;100555.16;;;16.48;100.00
44457;BME280;30159;49.316;8.558;2022-10-26T08:36:11;100553.91;;;16.63;100.00
44457;BME280;30159;49.316;8.558;2022-10-26T08:38:46;100530.34;;;16.58;100.00
44457;BME280;30159;49.316;8.558;2022-10-26T08:41:12;100555.72;;;16.76;100.00
44457;BME280;30159;49.316;8.558;2022-10-26T08:43:46;100564.81;;;16.72;100.00
44457;BME280;30159;49.316;8.558;2022-10-26T08:46:16;100559.88;;;16.74;100.00
44457;BME280;30159;49.316;8.558;2022-10-26T08:48:48;100560.47;;;16.71;100.00
44457;BME280;30159;49.316;8.558;2022-10-26T08:51:18;100568.78;;;16.57;100.00
44457;BME280;30159;49.316;8.558;2022-10-26T08:53:50;100574.22;;;16.48;100.00
44457;BME280;30159;49.316;8.558;2022-10-26T08:56:20;100573.72;;;16.46;100.00
44457;BME280;30159;49.316;8.558;2022-10-26T08:58:53;100572.25;;;16.40;100.00
44457;BME280;30159;49.316;8.558;2022-10-26T09:01:21;100574.91;;;16.22;100.00
44457;BME280;30159;49.316;8.558;2022-10-26T09:03:48;100578.84;;;16.16;100.00
44457;BME280;30159;49.316;8.558;2022-10-26T09:06:20;100583.75;;;16.37;100.00
44457;BME280;30159;49.316;8.558;2022-10-26T09:08:59;100589.88;;;16.42;100.00
44457;BME280;30159;49.316;8.558;2022-10-26T09:11:50;100585.09;;;16.48;100.00
44457;BME280;30159;49.316;8.558;2022-10-26T09:14:28;100577.63;;;16.62;100.00
44457;BME280;30159;49.316;8.558;2022-10-26T09:17:05;100579.69;;;16.65;100.00
44457;BME280;30159;49.316;8.558;2022-10-26T09:19:48;100592.94;;;16.90;100.00
44457;BME280;30159;49.316;8.558;2022-10-26T09:22:25;100598.59;;;17.19;100.00
44457;BME280;30159;49.316;8.558;2022-10-26T09:24:54;100603.59;;;17.43;100.00
44457;BME280;30159;49.316;8.558;2022-10-26T09:27:26;100602.16;;;17.63;100.00
44457;BME280;30159;49.316;8.558;2022-10-26T09:29:54;100598.94;;;17.79;100.00
44457;BME280;30159;49.316;8.558;2022-10-26T09:32:26;100601.03;;;17.82;100.00
44457;BME280;30159;49.316;8.558;2022-10-26T09:34:58;100600.72;;;17.83;100.00
44457;BME280;30159;49.316;8.558;2022-10-26T09:37:28;100608.75;;;17.88;100.00
44457;BME280;30159;49.316;8.558;2022-10-26T09:40:05;100610.03;;;17.82;100.00
44457;BME280;30159;49.316;8.558;2022-10-26T09:42:39;100613.19;;;18.02;100.00
44457;BME280;30159;49.316;8.558;2022-10-26T09:45:14;100606.25;;;18.22;100.00
44457;BME280;30159;49.316;8.558;2022-10-26T09:47:44;100614.75;;;18.29;100.00
44457;BME280;30159;49.316;8.558;2022-10-26T09:50:21;100597.75;;;18.23;100.00
44457;BME280;30159;49.316;8.558;2022-10-26T09:52:49;100612.47;;;18.40;100.00
44457;BME280;30159;49.316;8.558;2022-10-26T09:55:17;100609.47;;;18.62;100.00
44457;BME280;30159;49.316;8.558;2022-10-26T09:57:48;100591.78;;;18.68;100.00
44457;BME280;30159;49.316;8.558;2022-10-26T10:00:20;100592.91;;;18.97;100.00
44457;BME280;30159;49.316;8.558;2022-10-26T10:02:50;100585.16;;;19.08;99.26
44457;BME280;30159;49.316;8.558;2022-10-26T10:05:23;100615.72;;;19.31;97.98
44457;BME280;30159;49.316;8.558;2022-10-26T10:07:50;100618.44;;;19.31;98.88
44457;BME280;30159;49.316;8.558;2022-10-26T10:10:19;100630.72;;;19.67;98.79
44457;BME280;30159;49.316;8.558;2022-10-26T10:12:48;100628.72;;;19.76;97.27
44457;BME280;30159;49.316;8.558;2022-10-26T10:15:18;100630.84;;;19.91;95.37
44457;BME280;30159;49.316;8.558;2022-10-26T10:17:49;100622.25;;;20.14;94.93
44457;BME280;30159;49.316;8.558;2022-10-26T10:20:21;100630.50;;;20.26;92.56
44457;BME280;30159;49.316;8.558;2022-10-26T10:22:55;100625.94;;;20.30;92.57
44457;BME280;30159;49.316;8.558;2022-10-26T10:25:31;100638.28;;;20.49;93.04
44457;BME280;30159;49.316;8.558;2022-10-26T10:27:58;100639.47;;;20.60;90.80
44457;BME280;30159;49.316;8.558;2022-10-26T10:30:28;100641.09;;;20.61;91.41
44457;BME280;30159;49.316;8.558;2022-10-26T10:33:05;100640.00;;;20.53;90.34
44457;BME280;30159;49.316;8.558;2022-10-26T10:35:32;100645.16;;;20.42;90.35
44457;BME280;30159;49.316;8.558;2022-10-26T10:37:59;100644.38;;;20.54;91.20
44457;BME280;30159;49.316;8.558;2022-10-26T10:40:29;100645.97;;;20.55;90.28
44457;BME280;30159;49.316;8.558;2022-10-26T10:43:10;100647.47;;;20.65;90.55
44457;BME280;30159;49.316;8.558;2022-10-26T10:45:39;100656.88;;;20.89;89.42
44457;BME280;30159;49.316;8.558;2022-10-26T10:48:13;100656.75;;;21.10;89.04
44457;BME280;30159;49.316;8.558;2022-10-26T10:50:51;100664.59;;;21.23;89.60
44457;BME280;30159;49.316;8.558;2022-10-26T10:53:20;100667.00;;;21.25;87.61
44457;BME280;30159;49.316;8.558;2022-10-26T10:56:00;100666.91;;;21.34;87.84
44457;BME280;30159;49.316;8.558;2022-10-26T10:58:33;100669.88;;;21.29;85.27
44457;BME280;30159;49.316;8.558;2022-10-26T11:01:09;100668.63;;;21.26;86.17
44457;BME280;30159;49.316;8.558;2022-10-26T11:03:46;100676.03;;;21.25;86.41
44457;BME280;30159;49.316;8.558;2022-10-26T11:06:20;100675.25;;;21.50;85.09
44457;BME280;30159;49.316;8.558;2022-10-26T11:08:51;100672.34;;;21.71;83.85
44457;BME280;30159;49.316;8.558;2022-10-26T11:11:26;100683.44;;;21.62;84.49
44457;BME280;30159;49.316;8.558;2022-10-26T11:13:59;100683.97;;;21.80;84.21
44457;BME280;30159;49.316;8.558;2022-10-26T11:16:30;100679.06;;;21.73;84.19
44457;BME280;30159;49.316;8.558;2022-10-26T11:19:01;100687.94;;;21.42;83.50
44457;BME280;30159;49.316;8.558;2022-10-26T11:21:33;100692.63;;;21.29;85.32
44457;BME280;30159;49.316;8.558;2022-10-26T11:24:09;100691.81;;;21.16;85.68
44457;BME280;30159;49.316;8.558;2022-10-26T11:26:44;100653.88;;;21.18;86.46
44457;BME280;30159;49.316;8.558;2022-10-26T11:29:21;100688.59;;;21.51;85.07
44457;BME280;30159;49.316;8.558;2022-10-26T11:31:52;100686.91;;;21.46;84.83
44457;BME280;30159;49.316;8.558;2022-10-26T11:34:28;100688.84;;;21.34;84.22
44457;BME280;30159;49.316;8.558;2022-10-26T11:37:01;100688.59;;;21.39;84.99
44457;BME280;30159;49.316;8.558;2022-10-26T11:39:33;100657.28;;;21.27;85.37
44457;BME280;30159;49.316;8.558;2022-10-26T11:42:10;100697.88;;;21.46;85.38
44457;BME280;30159;49.316;8.558;2022-10-26T11:44:41;100696.63;;;21.56;86.01
44457;BME280;30159;49.316;8.558;2022-10-26T11:47:13;100702.00;;;21.53;85.53
44457;BME280;30159;49.316;8.558;2022-10-26T11:49:44;100696.28;;;21.45;84.53
44457;BME280;30159;49.316;8.558;2022-10-26T11:52:16;100697.28;;;21.53;84.82
44457;BME280;30159;49.316;8.558;2022-10-26T11:54:47;100697.13;;;21.74;84.17
44457;BME280;30159;49.316;8.558;2022-10-26T11:57:18;100697.78;;;21.83;83.57
44457;BME280;30159;49.316;8.558;2022-10-26T11:59:48;100704.03;;;21.68;84.98
44457;BME280;30159;49.316;8.558;2022-10-26T12:02:18;100706.69;;;21.93;82.64
44457;BME280;30159;49.316;8.558;2022-10-26T12:04:49;100709.16;;;21.70;83.86
44457;BME280;30159;49.316;8.558;2022-10-26T12:07:22;100694.13;;;21.79;83.78
44457;BME280;30159;49.316;8.558;2022-10-26T12:09:50;100710.47;;;21.88;84.41
44457;BME280;30159;49.316;8.558;2022-10-26T12:12:24;100709.16;;;21.70;84.43
44457;BME280;30159;49.316;8.558;2022-10-26T12:15:01;100705.28;;;21.71;84.24
44457;BME280;30159;49.316;8.558;2022-10-26T12:17:34;100706.91;;;21.59;84.51
44457;BME280;30159;49.316;8.558;2022-10-26T12:20:12;100711.97;;;21.85;84.14
44457;BME280;30159;49.316;8.558;2022-10-26T12:22:47;100696.84;;;22.20;82.33
44457;BME280;30159;49.316;8.558;2022-10-26T12:25:19;100700.16;;;22.25;83.14
44457;BME280;30159;49.316;8.558;2022-10-26T12:27:55;100709.16;;;22.10;81.71
44457;BME280;30159;49.316;8.558;2022-10-26T12:30:28;100706.22;;;22.19;81.98
44457;BME280;30159;49.316;8.558;2022-10-26T12:32:56;100704.53;;;22.14;82.24
44457;BME280;30159;49.316;8.558;2022-10-26T12:35:38;100702.63;;;21.74;83.98
44457;BME280;30159;49.316;8.558;2022-10-26T12:41:18;100719.50;;;21.11;86.52
44457;BME280;30159;49.316;8.558;2022-10-26T12:43:46;100716.50;;;21.04;87.71
44457;BME280;30159;49.316;8.558;2022-10-26T12:46:41;100716.75;;;20.99;87.71
44457;BME280;30159;49.316;8.558;2022-10-26T12:52:47;100719.25;;;20.92;89.38
44457;BME280;30159;49.316;8.558;2022-10-26T13:01:48;100711.16;;;21.20;88.55
44457;BME280;30159;49.316;8.558;2022-10-26T13:07:21;100719.50;;;21.36;88.44
44457;BME280;30159;49.316;8.558;2022-10-26T13:09:56;100720.88;;;21.42;88.07
44457;BME280;30159;49.316;8.558;2022-10-26T13:12:23;100712.84;;;21.49;87.23
44457;BME280;30159;49.316;8.558;2022-10-26T13:14:58;100720.06;;;21.54;87.34
44457;BME280;30159;49.316;8.558;2022-10-26T13:17:28;100718.31;;;21.74;86.68